createdAt,value
2023-05-16T00:00:03.896Z,41.58
2023-05-16T00:01:03.941Z,41.57
2023-05-16T00:02:03.112Z,41.60
2023-05-16T00:03:03.106Z,41.60
2023-05-16T00:04:03.144Z,41.58
2023-05-16T00:05:03.151Z,41.57
2023-05-16T00:06:03.048Z,41.64
2023-05-16T00:07:02.980Z,41.63
2023-05-16T00:08:03.030Z,41.60
2023-05-16T00:09:03.029Z,41.63
2023-05-16T00:10:04.022Z,41.62
2023-05-16T00:11:04.085Z,41.61
2023-05-16T00:12:04.051Z,41.60
2023-05-16T00:13:03.049Z,41.60
2023-05-16T00:14:04.059Z,41.59
2023-05-16T00:15:04.097Z,41.55
2023-05-16T00:16:04.090Z,41.57
2023-05-16T00:17:04.247Z,41.59
2023-05-16T00:18:04.187Z,41.59
2023-05-16T00:19:03.306Z,41.60
2023-05-16T00:20:03.154Z,41.56
2023-05-16T00:21:03.177Z,41.61
2023-05-16T00:22:04.241Z,41.58
2023-05-16T00:23:04.245Z,41.58
2023-05-16T00:24:03.231Z,41.61
2023-05-16T00:25:04.221Z,41.56
2023-05-16T00:26:04.226Z,41.60
2023-05-16T00:27:03.256Z,41.57
2023-05-16T00:28:04.257Z,41.60
2023-05-16T00:29:03.276Z,41.60
2023-05-16T00:30:04.311Z,41.58
2023-05-16T00:31:04.327Z,41.59
2023-05-16T00:32:03.424Z,41.61
2023-05-16T00:33:03.428Z,41.62
2023-05-16T00:34:04.422Z,41.61
2023-05-16T00:35:04.411Z,41.58
2023-05-16T00:36:04.409Z,41.59
2023-05-16T00:37:04.411Z,41.61
2023-05-16T00:38:03.410Z,41.56
2023-05-16T00:39:03.463Z,41.53
2023-05-16T00:40:04.473Z,41.56
2023-05-16T00:41:03.478Z,41.56
2023-05-16T00:42:04.490Z,41.56
2023-05-16T00:43:04.510Z,41.56
2023-05-16T00:44:03.541Z,41.58
2023-05-16T00:45:04.559Z,41.57
2023-05-16T00:46:03.576Z,41.56
2023-05-16T00:47:04.597Z,41.59
2023-05-16T00:48:03.593Z,41.54
2023-05-16T00:49:04.603Z,41.57
2023-05-16T00:50:03.600Z,41.58
2023-05-16T00:51:03.618Z,41.56
2023-05-16T00:52:03.660Z,41.57
2023-05-16T00:53:04.658Z,41.52
2023-05-16T00:54:03.702Z,41.59
2023-05-16T00:55:03.738Z,41.54
2023-05-16T00:56:04.740Z,41.55
2023-05-16T00:57:03.763Z,41.56
2023-05-16T00:58:03.791Z,41.53
2023-05-16T00:59:03.760Z,41.57
2023-05-16T01:00:04.770Z,41.54
2023-05-16T01:01:04.007Z,41.58
2023-05-16T01:02:03.860Z,41.52
2023-05-16T01:03:03.908Z,41.53
2023-05-16T01:04:05.172Z,41.61
2023-05-16T01:05:04.896Z,41.53
2023-05-16T01:06:03.889Z,41.53
2023-05-16T01:07:04.886Z,41.52
2023-05-16T01:08:03.902Z,41.50
2023-05-16T01:09:03.916Z,41.53
2023-05-16T01:10:04.937Z,41.58
2023-05-16T01:11:03.955Z,41.54
2023-05-16T01:12:03.976Z,41.53
2023-05-16T01:13:04.961Z,41.55
2023-05-16T01:14:05.000Z,41.55
2023-05-16T01:15:05.063Z,41.53
2023-05-16T01:16:05.050Z,41.55
2023-05-16T01:17:04.029Z,41.53
2023-05-16T01:18:05.122Z,41.53
2023-05-16T01:19:05.146Z,41.55
2023-05-16T01:20:05.089Z,41.51
2023-05-16T01:21:04.194Z,41.50
2023-05-16T01:22:04.088Z,41.50
2023-05-16T01:23:05.123Z,41.53
2023-05-16T01:24:05.156Z,41.54
2023-05-16T01:25:04.136Z,41.52
2023-05-16T01:26:04.169Z,41.53
2023-05-16T01:27:05.197Z,41.56
2023-05-16T01:28:05.246Z,41.50
2023-05-16T01:29:04.240Z,41.53
2023-05-16T01:30:05.307Z,41.48
2023-05-16T01:31:05.330Z,41.53
2023-05-16T01:32:04.307Z,41.51
2023-05-16T01:33:04.325Z,41.50
2023-05-16T01:34:04.306Z,41.53
2023-05-16T01:35:05.330Z,41.51
2023-05-16T01:36:05.357Z,41.50
2023-05-16T01:37:05.368Z,41.50
2023-05-16T01:38:04.396Z,41.50
2023-05-16T01:39:05.440Z,41.51
2023-05-16T01:40:05.468Z,41.50
2023-05-16T01:41:05.466Z,41.53
2023-05-16T01:42:05.479Z,41.50
2023-05-16T01:43:04.517Z,41.54
2023-05-16T01:44:05.537Z,41.54
2023-05-16T01:45:05.542Z,41.53
2023-05-16T01:46:05.586Z,41.47
2023-05-16T01:47:05.800Z,41.54
2023-05-16T01:48:05.898Z,41.51
2023-05-16T01:49:05.627Z,41.51
2023-05-16T01:50:04.692Z,41.50
2023-05-16T01:51:05.690Z,41.53
2023-05-16T01:52:04.714Z,41.50
2023-05-16T01:53:05.718Z,41.47
2023-05-16T01:54:05.744Z,41.51
2023-05-16T01:55:05.740Z,41.56
2023-05-16T01:56:05.765Z,41.51
2023-05-16T01:57:05.792Z,41.51
2023-05-16T01:58:05.837Z,41.49
2023-05-16T01:59:05.816Z,41.50
2023-05-16T02:00:04.886Z,41.51
2023-05-16T02:01:05.939Z,41.51
2023-05-16T02:02:04.901Z,41.48
2023-05-16T02:03:05.970Z,41.49
2023-05-16T02:04:05.007Z,41.52
2023-05-16T02:05:04.956Z,41.48
2023-05-16T02:06:04.985Z,41.51
2023-05-16T02:07:06.025Z,41.53
2023-05-16T02:08:06.058Z,41.49
2023-05-16T02:09:05.051Z,41.45
2023-05-16T02:10:06.073Z,41.53
2023-05-16T02:11:05.076Z,41.51
2023-05-16T02:12:05.141Z,41.51
2023-05-16T02:13:06.147Z,41.53
2023-05-16T02:14:05.210Z,41.53
2023-05-16T02:15:06.207Z,41.52
2023-05-16T02:16:05.321Z,41.49
2023-05-16T02:17:06.388Z,41.51
2023-05-16T02:18:05.382Z,41.53
2023-05-16T02:19:06.331Z,41.48
2023-05-16T02:20:06.330Z,41.49
2023-05-16T02:21:06.341Z,41.51
2023-05-16T02:22:05.355Z,41.48
2023-05-16T02:23:06.374Z,41.48
2023-05-16T02:24:05.423Z,41.55
2023-05-16T02:25:06.441Z,41.50
2023-05-16T02:26:05.454Z,41.52
2023-05-16T02:27:06.506Z,41.49
2023-05-16T02:28:05.511Z,41.52
2023-05-16T02:29:06.553Z,41.50
2023-05-16T02:30:05.586Z,41.52
2023-05-16T02:31:06.687Z,41.49
2023-05-16T02:32:05.657Z,41.50
2023-05-16T02:33:06.693Z,41.49
2023-05-16T02:34:06.681Z,41.50
2023-05-16T02:35:05.707Z,41.42
2023-05-16T02:36:05.727Z,41.47
2023-05-16T02:37:06.779Z,41.52
2023-05-16T02:38:05.809Z,41.48
2023-05-16T02:39:05.854Z,41.50
2023-05-16T02:40:05.875Z,41.48
2023-05-16T02:41:06.881Z,41.49
2023-05-16T02:42:06.916Z,41.50
2023-05-16T02:43:06.949Z,41.48
2023-05-16T02:44:05.984Z,41.52
2023-05-16T02:45:07.023Z,41.49
2023-05-16T02:46:07.045Z,41.46
2023-05-16T02:47:06.070Z,41.44
2023-05-16T02:48:07.133Z,41.50
2023-05-16T02:49:07.195Z,41.46
2023-05-16T02:50:07.167Z,41.47
2023-05-16T02:51:07.164Z,41.46
2023-05-16T02:52:06.216Z,41.45
2023-05-16T02:53:07.237Z,41.44
2023-05-16T02:54:06.265Z,41.47
2023-05-16T02:56:06.291Z,41.49
2023-05-16T02:57:06.286Z,41.46
2023-05-16T02:58:06.285Z,41.46
2023-05-16T02:59:07.263Z,41.45
2023-05-16T03:00:06.347Z,41.46
2023-05-16T03:01:07.277Z,41.50
2023-05-16T03:02:07.345Z,41.48
2023-05-16T03:03:07.314Z,41.49
2023-05-16T03:04:07.419Z,41.46
2023-05-16T03:05:06.279Z,41.47
2023-05-16T03:06:06.328Z,41.46
2023-05-16T03:07:06.216Z,41.47
2023-05-16T03:08:07.184Z,41.47
2023-05-16T03:09:07.185Z,41.42
2023-05-16T03:10:07.187Z,41.45
2023-05-16T03:11:07.179Z,41.46
2023-05-16T03:12:07.173Z,41.46
2023-05-16T03:13:07.146Z,41.45
2023-05-16T03:14:06.154Z,41.47
2023-05-16T03:15:06.222Z,41.47
2023-05-16T03:16:07.181Z,41.44
2023-05-16T03:17:06.149Z,41.47
2023-05-16T03:18:06.186Z,41.44
2023-05-16T03:19:07.375Z,41.45
2023-05-16T03:20:07.230Z,41.41
2023-05-16T03:21:06.128Z,41.45
2023-05-16T03:22:07.103Z,41.47
2023-05-16T03:23:06.098Z,41.47
2023-05-16T03:24:07.156Z,41.45
2023-05-16T03:25:07.081Z,41.41
2023-05-16T03:26:06.067Z,41.42
2023-05-16T03:27:07.112Z,41.47
2023-05-16T03:28:06.087Z,41.38
2023-05-16T03:29:07.054Z,41.43
2023-05-16T03:30:07.037Z,41.42
2023-05-16T03:31:06.173Z,41.45
2023-05-16T03:32:06.316Z,41.48
2023-05-16T03:33:06.107Z,41.46
2023-05-16T03:34:07.054Z,41.43
2023-05-16T03:35:07.108Z,41.44
2023-05-16T03:36:06.164Z,41.47
2023-05-16T03:37:07.164Z,41.44
2023-05-16T03:38:06.198Z,41.42
2023-05-16T03:39:07.238Z,41.42
2023-05-16T03:40:07.303Z,41.48
2023-05-16T03:41:06.290Z,41.48
2023-05-16T03:42:06.348Z,41.41
2023-05-16T03:43:07.411Z,41.43
2023-05-16T03:44:06.403Z,41.41
2023-05-16T03:45:07.453Z,41.44
2023-05-16T03:46:06.534Z,41.44
2023-05-16T03:47:07.512Z,41.44
2023-05-16T03:48:06.604Z,41.47
2023-05-16T03:49:06.563Z,41.47
2023-05-16T03:50:07.649Z,41.40
2023-05-16T03:51:07.677Z,41.44
2023-05-16T03:52:07.704Z,41.43
2023-05-16T03:53:07.737Z,41.46
2023-05-16T03:54:07.745Z,41.42
2023-05-16T03:55:06.789Z,41.41
2023-05-16T03:56:07.814Z,41.42
2023-05-16T03:57:07.853Z,41.40
2023-05-16T03:58:07.953Z,41.45
2023-05-16T03:59:06.945Z,41.43
2023-05-16T04:00:07.960Z,41.44
2023-05-16T04:01:08.013Z,41.43
2023-05-16T04:02:07.114Z,41.43
2023-05-16T04:03:08.114Z,41.42
2023-05-16T04:04:07.136Z,41.43
2023-05-16T04:05:08.329Z,41.41
2023-05-16T04:06:07.296Z,41.42
2023-05-16T04:07:08.233Z,41.40
2023-05-16T04:08:08.304Z,41.42
2023-05-16T04:09:07.319Z,41.43
2023-05-16T04:10:07.323Z,41.38
2023-05-16T04:11:08.377Z,41.38
2023-05-16T04:12:08.437Z,41.40
2023-05-16T04:13:08.450Z,41.40
2023-05-16T04:14:08.597Z,41.39
2023-05-16T04:15:07.519Z,41.40
2023-05-16T04:16:07.591Z,41.43
2023-05-16T04:17:07.721Z,41.38
2023-05-16T04:18:08.726Z,41.37
2023-05-16T04:19:07.800Z,41.38
2023-05-16T04:20:08.743Z,41.39
2023-05-16T04:21:08.786Z,41.40
2023-05-16T04:22:07.818Z,41.38
2023-05-16T04:23:07.866Z,41.40
2023-05-16T04:24:08.943Z,41.37
2023-05-16T04:25:08.937Z,41.35
2023-05-16T04:26:08.973Z,41.40
2023-05-16T04:27:08.024Z,41.38
2023-05-16T04:28:08.060Z,41.40
2023-05-16T04:29:09.111Z,41.36
2023-05-16T04:30:08.169Z,41.38
2023-05-16T04:31:09.212Z,41.36
2023-05-16T04:32:09.238Z,41.40
2023-05-16T04:33:08.327Z,41.38
2023-05-16T04:34:08.311Z,41.38
2023-05-16T04:35:09.385Z,41.39
2023-05-16T04:36:09.410Z,41.32
2023-05-16T04:37:08.692Z,41.39
2023-05-16T04:38:08.506Z,41.37
2023-05-16T04:39:08.546Z,41.38
2023-05-16T04:40:08.598Z,41.36
2023-05-16T04:41:08.618Z,41.38
2023-05-16T04:42:09.662Z,41.37
2023-05-16T04:43:09.725Z,41.37
2023-05-16T04:44:08.757Z,41.37
2023-05-16T04:45:09.805Z,41.36
2023-05-16T04:46:09.861Z,41.36
2023-05-16T04:47:09.892Z,41.35
2023-05-16T04:48:09.951Z,41.40
2023-05-16T04:49:08.979Z,41.34
2023-05-16T04:50:10.038Z,41.37
2023-05-16T04:51:10.044Z,41.34
2023-05-16T04:52:10.107Z,41.40
2023-05-16T04:53:09.128Z,41.37
2023-05-16T04:54:10.164Z,41.39
2023-05-16T04:55:10.243Z,41.37
2023-05-16T04:56:09.260Z,41.73
2023-05-16T04:57:09.247Z,41.74
2023-05-16T04:58:10.252Z,41.72
2023-05-16T04:59:10.292Z,41.62
2023-05-16T05:00:10.378Z,41.51
2023-05-16T05:01:09.476Z,41.45
2023-05-16T05:02:10.491Z,41.48
2023-05-16T05:03:10.532Z,41.48
2023-05-16T05:04:09.506Z,41.55
2023-05-16T05:05:10.546Z,41.48
2023-05-16T05:06:10.555Z,41.42
2023-05-16T05:07:10.583Z,41.40
2023-05-16T05:08:10.586Z,41.26
2023-05-16T05:09:09.635Z,41.26
2023-05-16T05:10:10.640Z,41.33
2023-05-16T05:11:09.675Z,41.25
2023-05-16T05:12:10.697Z,41.17
2023-05-16T05:13:10.662Z,41.11
2023-05-16T05:14:09.678Z,41.05
2023-05-16T05:15:10.687Z,40.99
2023-05-16T05:16:10.682Z,40.93
2023-05-16T05:17:09.768Z,40.98
2023-05-16T05:18:09.819Z,40.95
2023-05-16T05:19:09.742Z,41.00
2023-05-16T05:20:09.756Z,40.99
2023-05-16T05:21:10.754Z,40.93
2023-05-16T05:22:09.780Z,40.85
2023-05-16T05:23:09.765Z,40.87
2023-05-16T05:24:10.785Z,40.80
2023-05-16T05:25:10.800Z,40.60
2023-05-16T05:26:09.825Z,40.63
2023-05-16T05:27:09.849Z,40.69
2023-05-16T05:28:10.820Z,40.83
2023-05-16T05:29:09.845Z,40.84
2023-05-16T05:30:10.823Z,40.92
2023-05-16T05:31:10.884Z,41.04
2023-05-16T05:32:09.980Z,40.86
2023-05-16T05:33:10.893Z,40.84
2023-05-16T05:34:09.846Z,40.96
2023-05-16T05:35:09.897Z,41.09
2023-05-16T05:36:10.926Z,41.02
2023-05-16T05:37:09.973Z,40.86
2023-05-16T05:38:11.001Z,40.78
2023-05-16T05:39:11.060Z,40.89
2023-05-16T05:40:11.100Z,40.72
2023-05-16T05:41:11.195Z,40.71
2023-05-16T05:42:11.229Z,40.56
2023-05-16T05:43:11.242Z,40.52
2023-05-16T05:44:10.252Z,40.40
2023-05-16T05:45:11.279Z,40.35
2023-05-16T05:46:11.320Z,40.25
2023-05-16T05:47:10.312Z,40.16
2023-05-16T05:48:10.405Z,40.42
2023-05-16T05:49:10.401Z,40.11
2023-05-16T05:50:10.400Z,39.98
2023-05-16T05:51:11.417Z,40.20
2023-05-16T05:52:11.891Z,40.55
2023-05-16T05:53:10.544Z,40.45
2023-05-16T05:54:11.543Z,40.62
2023-05-16T05:55:11.574Z,40.73
2023-05-16T05:56:11.537Z,40.77
2023-05-16T05:57:11.542Z,40.81
2023-05-16T05:58:11.560Z,41.00
2023-05-16T05:59:11.595Z,41.09
2023-05-16T06:00:11.653Z,41.19
2023-05-16T06:01:10.568Z,41.47
2023-05-16T06:02:11.987Z,41.63
2023-05-16T06:03:10.599Z,41.63
2023-05-16T06:04:11.650Z,41.57
2023-05-16T06:05:10.717Z,41.60
2023-05-16T06:06:11.752Z,41.63
2023-05-16T06:07:11.777Z,41.70
2023-05-16T06:08:11.776Z,41.53
2023-05-16T06:09:11.795Z,41.58
2023-05-16T06:10:11.815Z,41.38
2023-05-16T06:11:10.820Z,41.26
2023-05-16T06:12:11.828Z,41.15
2023-05-16T06:13:10.809Z,41.01
2023-05-16T06:14:10.830Z,40.87
2023-05-16T06:15:10.857Z,40.79
2023-05-16T06:16:11.866Z,40.79
2023-05-16T06:17:11.986Z,40.67
2023-05-16T06:18:10.985Z,40.59
2023-05-16T06:19:12.003Z,39.85
2023-05-16T06:20:11.976Z,39.74
2023-05-16T06:21:12.007Z,39.48
2023-05-16T06:22:11.050Z,39.52
2023-05-16T06:23:11.104Z,39.84
2023-05-16T06:24:11.169Z,39.84
2023-05-16T06:25:12.173Z,40.10
2023-05-16T06:26:11.189Z,40.40
2023-05-16T06:27:12.240Z,40.57
2023-05-16T06:28:12.303Z,40.63
2023-05-16T06:29:11.378Z,40.82
2023-05-16T06:30:12.435Z,41.03
2023-05-16T06:31:12.524Z,41.37
2023-05-16T06:32:13.517Z,41.50
2023-05-16T06:33:11.523Z,41.39
2023-05-16T06:34:12.504Z,41.52
2023-05-16T06:35:11.569Z,41.73
2023-05-16T06:36:12.630Z,41.74
2023-05-16T06:37:12.684Z,41.95
2023-05-16T06:38:12.708Z,42.14
2023-05-16T06:39:12.717Z,42.12
2023-05-16T06:40:12.739Z,42.28
2023-05-16T06:41:12.744Z,42.10
2023-05-16T06:42:11.764Z,42.19
2023-05-16T06:43:12.764Z,42.29
2023-05-16T06:44:12.752Z,42.52
2023-05-16T06:45:12.751Z,42.15
2023-05-16T06:46:12.782Z,42.74
2023-05-16T06:47:12.771Z,42.75
2023-05-16T06:48:12.784Z,43.04
2023-05-16T06:49:12.738Z,42.30
2023-05-16T06:50:12.748Z,42.98
2023-05-16T06:51:11.735Z,42.88
2023-05-16T06:52:12.732Z,43.13
2023-05-16T06:53:12.916Z,43.24
2023-05-16T06:54:11.799Z,43.54
2023-05-16T06:55:11.826Z,43.63
2023-05-16T06:56:11.849Z,43.85
2023-05-16T06:57:11.869Z,43.19
2023-05-16T06:58:11.953Z,43.60
2023-05-16T06:59:11.917Z,43.23
2023-05-16T07:00:13.985Z,43.17
2023-05-16T07:01:13.034Z,43.15
2023-05-16T07:02:12.973Z,43.31
2023-05-16T07:03:13.070Z,42.94
2023-05-16T07:04:13.199Z,42.96
2023-05-16T07:05:11.994Z,42.86
2023-05-16T07:06:13.017Z,42.84
2023-05-16T07:07:13.014Z,42.88
2023-05-16T07:08:13.068Z,42.90
2023-05-16T07:09:13.015Z,42.85
2023-05-16T07:10:13.050Z,42.89
2023-05-16T07:11:12.056Z,42.68
2023-05-16T07:12:13.084Z,42.39
2023-05-16T07:13:13.159Z,42.11
2023-05-16T07:14:13.185Z,41.96
2023-05-16T07:15:12.205Z,42.00
2023-05-16T07:16:13.243Z,42.02
2023-05-16T07:17:13.222Z,42.18
2023-05-16T07:18:13.226Z,42.20
2023-05-16T07:19:13.337Z,42.14
2023-05-16T07:20:13.210Z,42.16
2023-05-16T07:21:13.205Z,42.19
2023-05-16T07:22:13.218Z,42.21
2023-05-16T07:23:13.251Z,42.16
2023-05-16T07:24:13.280Z,42.12
2023-05-16T07:25:12.333Z,42.09
2023-05-16T07:26:13.387Z,42.12
2023-05-16T07:27:13.468Z,42.08
2023-05-16T07:28:13.506Z,42.22
2023-05-16T07:29:12.554Z,42.25
2023-05-16T07:30:13.638Z,42.10
2023-05-16T07:31:12.709Z,41.96
2023-05-16T07:32:13.848Z,42.00
2023-05-16T07:33:12.823Z,41.87
2023-05-16T07:34:14.002Z,42.00
2023-05-16T07:35:13.819Z,41.92
2023-05-16T07:36:16.989Z,42.05
2023-05-16T07:37:12.813Z,42.25
2023-05-16T07:38:12.802Z,42.21
2023-05-16T07:39:13.756Z,42.35
2023-05-16T07:40:13.775Z,42.41
2023-05-16T07:41:12.741Z,42.46
2023-05-16T07:42:12.739Z,42.45
2023-05-16T07:43:13.749Z,42.43
2023-05-16T07:44:13.714Z,42.35
2023-05-16T07:45:13.699Z,42.39
2023-05-16T07:46:13.743Z,42.47
2023-05-16T07:47:13.696Z,42.64
2023-05-16T07:48:12.987Z,42.65
2023-05-16T07:49:12.673Z,42.73
2023-05-16T07:50:13.669Z,42.76
2023-05-16T07:51:12.729Z,42.52
2023-05-16T07:52:12.703Z,43.42
2023-05-16T07:53:12.942Z,42.35
2023-05-16T07:54:12.751Z,42.25
2023-05-16T07:55:13.794Z,42.12
2023-05-16T07:56:13.808Z,42.00
2023-05-16T07:57:12.813Z,41.96
2023-05-16T07:58:12.826Z,41.98
2023-05-16T07:59:12.861Z,41.95
2023-05-16T08:00:13.831Z,42.02
2023-05-16T08:01:13.871Z,41.98
2023-05-16T08:02:12.892Z,42.11
2023-05-16T08:03:13.992Z,42.25
2023-05-16T08:04:13.822Z,42.19
2023-05-16T08:05:13.907Z,42.12
2023-05-16T08:06:12.936Z,42.16
2023-05-16T08:07:14.006Z,42.24
2023-05-16T08:08:13.841Z,42.36
2023-05-16T08:09:12.821Z,42.20
2023-05-16T08:10:13.741Z,42.21
2023-05-16T08:11:12.819Z,42.65
2023-05-16T08:12:13.817Z,42.43
2023-05-16T08:13:12.812Z,42.24
2023-05-16T08:14:12.815Z,42.33
2023-05-16T08:15:12.884Z,42.34
2023-05-16T08:16:13.928Z,42.31
2023-05-16T08:17:14.006Z,42.30
2023-05-16T08:18:14.130Z,42.32
2023-05-16T08:19:14.168Z,42.31
2023-05-16T08:20:13.130Z,42.34
2023-05-16T08:21:13.207Z,42.38
2023-05-16T08:22:14.262Z,42.68
2023-05-16T08:23:13.362Z,42.56
2023-05-16T08:24:13.368Z,42.50
2023-05-16T08:25:14.435Z,42.55
2023-05-16T08:26:13.471Z,42.52
2023-05-16T08:27:14.520Z,42.56
2023-05-16T08:28:14.590Z,42.60
2023-05-16T08:29:13.647Z,42.69
2023-05-16T08:30:14.710Z,42.68
2023-05-16T08:31:13.818Z,42.68
2023-05-16T08:32:14.817Z,42.72
2023-05-16T08:33:13.984Z,42.24
2023-05-16T08:34:14.852Z,41.41
2023-05-16T08:35:14.891Z,41.38
2023-05-16T08:36:14.918Z,41.09
2023-05-16T08:37:17.202Z,41.07
2023-05-16T08:38:15.169Z,41.06
2023-05-16T08:39:15.015Z,41.09
2023-05-16T08:40:14.987Z,41.04
2023-05-16T08:41:14.982Z,41.00
2023-05-16T08:42:13.982Z,41.17
2023-05-16T08:43:14.956Z,41.87
2023-05-16T08:44:14.922Z,41.66
2023-05-16T08:45:14.937Z,41.41
2023-05-16T08:46:14.969Z,41.75
2023-05-16T08:47:14.940Z,41.43
2023-05-16T08:48:14.951Z,41.44
2023-05-16T08:49:13.915Z,41.27
2023-05-16T08:50:13.924Z,41.05
2023-05-16T08:51:14.913Z,41.09
2023-05-16T08:52:14.880Z,41.08
2023-05-16T08:53:14.883Z,41.30
2023-05-16T08:54:14.876Z,41.69
2023-05-16T08:55:13.895Z,41.88
2023-05-16T08:56:13.869Z,42.31
2023-05-16T08:57:14.869Z,42.35
2023-05-16T08:58:14.970Z,42.67
2023-05-16T08:59:13.850Z,41.72
2023-05-16T09:00:13.811Z,41.73
2023-05-16T09:01:13.873Z,41.60
2023-05-16T09:02:14.814Z,41.37
2023-05-16T09:03:14.839Z,41.65
2023-05-16T09:04:13.817Z,41.80
2023-05-16T09:05:14.781Z,41.63
2023-05-16T09:06:14.785Z,41.59
2023-05-16T09:07:13.765Z,41.41
2023-05-16T09:08:14.760Z,41.41
2023-05-16T09:09:14.771Z,41.62
2023-05-16T09:10:13.958Z,41.60
2023-05-16T09:11:14.903Z,41.59
2023-05-16T09:12:14.944Z,41.72
2023-05-16T09:13:15.333Z,41.46
2023-05-16T09:14:15.008Z,41.62
2023-05-16T09:15:15.062Z,41.58
2023-05-16T09:16:14.035Z,41.62
2023-05-16T09:17:16.732Z,41.49
2023-05-16T09:18:16.160Z,41.37
2023-05-16T09:19:15.182Z,41.22
2023-05-16T09:20:15.060Z,41.16
2023-05-16T09:21:15.083Z,41.30
2023-05-16T09:22:15.190Z,41.29
2023-05-16T09:23:15.068Z,41.41
2023-05-16T09:24:14.035Z,41.34
2023-05-16T09:25:28.316Z,41.42
2023-05-16T09:26:15.009Z,41.44
2023-05-16T09:27:15.318Z,41.47
2023-05-16T09:28:14.014Z,41.49
2023-05-16T09:29:15.034Z,41.59
2023-05-16T09:30:14.997Z,41.63
2023-05-16T09:31:14.039Z,41.85
2023-05-16T09:32:13.970Z,41.72
2023-05-16T09:33:15.061Z,41.78
2023-05-16T09:34:13.962Z,41.61
2023-05-16T09:35:13.948Z,42.11
2023-05-16T09:36:14.962Z,41.85
2023-05-16T09:37:14.942Z,41.76
2023-05-16T09:38:14.966Z,41.70
2023-05-16T09:39:13.914Z,41.80
2023-05-16T09:40:13.991Z,41.97
2023-05-16T09:41:13.907Z,42.02
2023-05-16T09:42:13.911Z,42.31
2023-05-16T09:43:13.944Z,42.08
2023-05-16T09:44:13.891Z,42.34
2023-05-16T09:45:13.881Z,42.36
2023-05-16T09:46:14.945Z,42.58
2023-05-16T09:47:14.894Z,42.50
2023-05-16T09:48:13.931Z,42.73
2023-05-16T09:49:14.993Z,42.61
2023-05-16T09:50:17.149Z,42.87
2023-05-16T09:51:13.976Z,43.17
2023-05-16T09:52:15.011Z,42.86
2023-05-16T09:53:14.990Z,42.78
2023-05-16T09:54:13.978Z,42.85
2023-05-16T09:55:13.978Z,42.90
2023-05-16T09:56:14.956Z,43.24
2023-05-16T09:57:13.953Z,43.27
2023-05-16T09:58:14.938Z,43.29
2023-05-16T09:59:17.015Z,43.35
2023-05-16T10:00:14.913Z,43.45
2023-05-16T10:01:14.927Z,43.49
2023-05-16T10:02:15.032Z,43.59
2023-05-16T10:03:14.995Z,43.61
2023-05-16T10:04:15.061Z,43.71
2023-05-16T10:05:13.884Z,43.72
2023-05-16T10:06:14.864Z,43.82
2023-05-16T10:07:14.872Z,44.00
2023-05-16T10:08:14.877Z,44.00
2023-05-16T10:09:14.851Z,44.00
2023-05-16T10:10:13.862Z,44.02
2023-05-16T10:11:13.832Z,44.08
2023-05-16T10:12:14.828Z,44.15
2023-05-16T10:13:13.829Z,44.16
2023-05-16T10:14:13.841Z,44.23
2023-05-16T10:15:13.866Z,44.26
2023-05-16T10:16:13.869Z,44.28
2023-05-16T10:17:14.786Z,44.30
2023-05-16T10:18:14.815Z,44.29
2023-05-16T10:19:13.915Z,44.32
2023-05-16T10:20:14.769Z,44.31
2023-05-16T10:21:13.758Z,44.31
2023-05-16T10:22:14.758Z,44.35
2023-05-16T10:23:14.758Z,44.36
2023-05-16T10:24:14.734Z,44.32
2023-05-16T10:25:14.731Z,44.35
2023-05-16T10:26:14.902Z,44.37
2023-05-16T10:27:13.716Z,44.31
2023-05-16T10:28:14.711Z,44.42
2023-05-16T10:29:14.720Z,44.36
2023-05-16T10:30:13.680Z,44.47
2023-05-16T10:31:13.809Z,44.39
2023-05-16T10:32:13.786Z,44.41
2023-05-16T10:33:13.864Z,44.36
2023-05-16T10:34:13.646Z,44.42
2023-05-16T10:35:14.650Z,44.39
2023-05-16T10:36:13.655Z,44.39
2023-05-16T10:37:14.637Z,44.39
2023-05-16T10:38:14.622Z,44.41
2023-05-16T10:39:14.658Z,44.38
2023-05-16T10:40:14.686Z,44.43
2023-05-16T10:41:14.700Z,44.42
2023-05-16T10:42:14.722Z,44.39
2023-05-16T10:43:13.792Z,44.39
2023-05-16T10:44:15.011Z,44.37
2023-05-16T10:45:14.830Z,44.41
2023-05-16T10:46:15.094Z,44.36
2023-05-16T10:47:14.087Z,44.39
2023-05-16T10:48:14.987Z,44.37
2023-05-16T10:49:15.016Z,44.40
2023-05-16T10:50:14.989Z,44.36
2023-05-16T10:51:15.029Z,44.39
2023-05-16T10:52:15.066Z,44.37
2023-05-16T10:53:15.126Z,44.33
2023-05-16T10:54:14.138Z,44.36
2023-05-16T10:55:14.157Z,44.35
2023-05-16T10:56:14.190Z,44.34
2023-05-16T10:57:15.218Z,44.37
2023-05-16T10:58:14.346Z,44.34
2023-05-16T10:59:15.307Z,44.31
2023-05-16T11:00:15.356Z,44.34
2023-05-16T11:01:15.443Z,44.36
2023-05-16T11:02:14.479Z,44.29
2023-05-16T11:03:14.571Z,44.32
2023-05-16T11:04:15.455Z,44.29
2023-05-16T11:05:14.497Z,44.30
2023-05-16T11:06:15.534Z,44.32
2023-05-16T11:07:15.554Z,44.31
2023-05-16T11:08:14.583Z,44.30
2023-05-16T11:09:14.591Z,44.32
2023-05-16T11:10:14.658Z,44.34
2023-05-16T11:11:14.646Z,44.29
2023-05-16T11:12:14.691Z,44.35
2023-05-16T11:13:15.710Z,44.29
2023-05-16T11:14:15.742Z,44.36
2023-05-16T11:15:15.752Z,44.32
2023-05-16T11:16:14.779Z,44.26
2023-05-16T11:17:15.067Z,44.32
2023-05-16T11:18:15.921Z,44.28
2023-05-16T11:19:14.960Z,44.34
2023-05-16T11:20:15.889Z,44.35
2023-05-16T11:21:14.926Z,44.30
2023-05-16T11:22:14.936Z,44.24
2023-05-16T11:23:15.969Z,44.24
2023-05-16T11:24:16.007Z,44.26
2023-05-16T11:25:15.065Z,44.25
2023-05-16T11:26:16.057Z,44.26
2023-05-16T11:27:16.075Z,44.26
2023-05-16T11:28:16.305Z,44.26
2023-05-16T11:29:16.114Z,44.26
2023-05-16T11:30:15.221Z,44.25
2023-05-16T11:31:15.203Z,44.22
2023-05-16T11:32:16.187Z,44.22
2023-05-16T11:33:15.256Z,44.18
2023-05-16T11:34:15.334Z,44.18
2023-05-16T11:35:16.467Z,44.11
2023-05-16T11:36:16.792Z,44.18
2023-05-16T11:37:16.297Z,44.23
2023-05-16T11:38:16.330Z,44.37
2023-05-16T11:39:16.564Z,44.58
2023-05-16T11:40:15.421Z,44.83
2023-05-16T11:41:15.383Z,44.49
2023-05-16T11:42:16.355Z,44.66
2023-05-16T11:43:16.376Z,44.58
2023-05-16T11:44:16.389Z,44.48
2023-05-16T11:45:16.433Z,44.40
2023-05-16T11:46:16.583Z,44.47
2023-05-16T11:47:16.462Z,44.46
2023-05-16T11:48:24.817Z,44.50
2023-05-16T11:49:16.494Z,44.46
2023-05-16T11:50:15.433Z,44.50
2023-05-16T11:51:15.479Z,44.52
2023-05-16T11:52:16.416Z,44.54
2023-05-16T11:53:15.400Z,44.56
2023-05-16T11:54:15.450Z,44.60
2023-05-16T11:55:28.225Z,44.61
2023-05-16T11:56:16.390Z,44.66
2023-05-16T11:57:15.383Z,44.62
2023-05-16T11:58:15.384Z,44.60
2023-05-16T11:59:16.367Z,44.69
2023-05-16T12:00:15.363Z,44.68
2023-05-16T12:01:16.378Z,44.68
2023-05-16T12:02:16.365Z,44.65
2023-05-16T12:03:16.462Z,44.66
2023-05-16T12:04:16.602Z,44.67
2023-05-16T12:05:16.391Z,44.67
2023-05-16T12:06:16.318Z,44.62
2023-05-16T12:07:16.395Z,44.66
2023-05-16T12:08:16.302Z,44.64
2023-05-16T12:09:18.201Z,44.70
2023-05-16T12:10:16.325Z,44.64
2023-05-16T12:11:15.303Z,44.68
2023-05-16T12:12:15.281Z,44.65
2023-05-16T12:13:16.756Z,44.64
2023-05-16T12:14:16.273Z,44.63
2023-05-16T12:15:16.263Z,44.63
2023-05-16T12:16:15.281Z,44.64
2023-05-16T12:17:16.257Z,44.63
2023-05-16T12:18:16.303Z,44.61
2023-05-16T12:19:16.270Z,44.69
2023-05-16T12:20:16.281Z,44.65
2023-05-16T12:21:15.251Z,44.69
2023-05-16T12:22:15.205Z,44.69
2023-05-16T12:23:16.280Z,44.66
2023-05-16T12:24:15.214Z,44.65
2023-05-16T12:25:15.208Z,44.68
2023-05-16T12:26:15.223Z,44.67
2023-05-16T12:27:16.200Z,44.67
2023-05-16T12:28:16.188Z,44.65
2023-05-16T12:29:16.234Z,44.64
2023-05-16T12:30:16.187Z,44.66
2023-05-16T12:31:30.048Z,44.67
2023-05-16T12:32:16.193Z,44.65
2023-05-16T12:33:16.204Z,44.66
2023-05-16T12:34:15.134Z,44.62
2023-05-16T12:35:16.131Z,44.67
2023-05-16T12:36:16.111Z,44.66
2023-05-16T12:37:15.105Z,44.65
2023-05-16T12:38:15.088Z,44.67
2023-05-16T12:39:15.122Z,44.72
2023-05-16T12:40:15.099Z,44.63
2023-05-16T12:41:15.082Z,44.68
2023-05-16T12:42:16.066Z,44.60
2023-05-16T12:43:15.078Z,44.61
2023-05-16T12:44:15.056Z,44.65
2023-05-16T12:45:16.091Z,44.61
2023-05-16T12:46:15.114Z,44.57
2023-05-16T12:47:19.073Z,44.64
2023-05-16T12:48:16.081Z,44.59
2023-05-16T12:49:16.021Z,44.57
2023-05-16T12:50:17.028Z,44.58
2023-05-16T12:51:16.006Z,44.54
2023-05-16T12:52:15.998Z,44.53
2023-05-16T12:53:15.029Z,44.50